sensor_id;sensor_type;location;lat;lon;timestamp;P1;durP1;ratioP1;P2;durP2;ratioP2
15504;SDS011;7854;52.184;5.942;2023-04-25T00:03:30;8;;;3;;
15504;SDS011;7854;52.184;5.942;2023-04-25T00:04:20;25;;;4;;
15504;SDS011;7854;52.184;5.942;2023-04-25T00:06:34;9;;;4;;
15504;SDS011;7854;52.184;5.942;2023-04-25T00:08:47;6;;;2;;
15504;SDS011;7854;52.184;5.942;2023-04-25T00:11:01;11;;;3;;
15504;SDS011;7854;52.184;5.942;2023-04-25T00:13:16;12;;;4;;
15504;SDS011;7854;52.184;5.942;2023-04-25T00:15:30;16;;;4;;
15504;SDS011;7854;52.184;5.942;2023-04-25T00:17:45;8;;;4;;
15504;SDS011;7854;52.184;5.942;2023-04-25T00:19:59;12;;;4;;
15504;SDS011;7854;52.184;5.942;2023-04-25T00:22:13;21;;;5;;
15504;SDS011;7854;52.184;5.942;2023-04-25T00:24:28;20;;;5;;
15504;SDS011;7854;52.184;5.942;2023-04-25T00:26:42;9;;;3;;
15504;SDS011;7854;52.184;5.942;2023-04-25T00:28:57;10;;;3;;
15504;SDS011;7854;52.184;5.942;2023-04-25T00:31:11;12;;;3;;
15504;SDS011;7854;52.184;5.942;2023-04-25T00:33:26;11;;;3;;
15504;SDS011;7854;52.184;5.942;2023-04-25T00:35:40;17;;;3;;
15504;SDS011;7854;52.184;5.942;2023-04-25T00:37:54;18;;;4;;
15504;SDS011;7854;52.184;5.942;2023-04-25T00:40:09;18;;;5;;
15504;SDS011;7854;52.184;5.942;2023-04-25T00:42:24;10;;;3;;
15504;SDS011;7854;52.184;5.942;2023-04-25T00:44:38;12;;;5;;
15504;SDS011;7854;52.184;5.942;2023-04-25T00:46:52;18;;;4;;
15504;SDS011;7854;52.184;5.942;2023-04-25T00:49:07;8;;;3;;
15504;SDS011;7854;52.184;5.942;2023-04-25T00:51:21;11;;;4;;
15504;SDS011;7854;52.184;5.942;2023-04-25T00:53:36;14;;;4;;
15504;SDS011;7854;52.184;5.942;2023-04-25T00:55:50;12;;;4;;
15504;SDS011;7854;52.184;5.942;2023-04-25T00:58:04;21;;;3;;
15504;SDS011;7854;52.184;5.942;2023-04-25T01:00:18;8;;;4;;
15504;SDS011;7854;52.184;5.942;2023-04-25T01:02:32;15;;;4;;
15504;SDS011;7854;52.184;5.942;2023-04-25T01:04:46;9;;;4;;
15504;SDS011;7854;52.184;5.942;2023-04-25T01:07:00;33;;;3;;
15504;SDS011;7854;52.184;5.942;2023-04-25T01:09:15;28;;;5;;
15504;SDS011;7854;52.184;5.942;2023-04-25T01:11:29;11;;;5;;
15504;SDS011;7854;52.184;5.942;2023-04-25T01:13:44;14;;;4;;
15504;SDS011;7854;52.184;5.942;2023-04-25T01:15:58;19;;;5;;
15504;SDS011;7854;52.184;5.942;2023-04-25T01:18:13;10;;;5;;
15504;SDS011;7854;52.184;5.942;2023-04-25T01:20:27;4;;;4;;
15504;SDS011;7854;52.184;5.942;2023-04-25T01:22:42;11;;;4;;
15504;SDS011;7854;52.184;5.942;2023-04-25T01:24:56;20;;;5;;
15504;SDS011;7854;52.184;5.942;2023-04-25T01:27:10;10;;;4;;
15504;SDS011;7854;52.184;5.942;2023-04-25T01:29:25;18;;;5;;
15504;SDS011;7854;52.184;5.942;2023-04-25T01:31:39;11;;;5;;
15504;SDS011;7854;52.184;5.942;2023-04-25T01:33:54;15;;;4;;
15504;SDS011;7854;52.184;5.942;2023-04-25T01:36:08;9;;;4;;
15504;SDS011;7854;52.184;5.942;2023-04-25T01:38:23;9;;;3;;
15504;SDS011;7854;52.184;5.942;2023-04-25T01:40:37;14;;;5;;
15504;SDS011;7854;52.184;5.942;2023-04-25T01:42:51;35;;;5;;
15504;SDS011;7854;52.184;5.942;2023-04-25T01:45:06;18;;;4;;
15504;SDS011;7854;52.184;5.942;2023-04-25T01:47:21;10;;;4;;
15504;SDS011;7854;52.184;5.942;2023-04-25T01:49:34;14;;;6;;
15504;SDS011;7854;52.184;5.942;2023-04-25T01:51:48;20;;;4;;
15504;SDS011;7854;52.184;5.942;2023-04-25T01:54:03;16;;;4;;
15504;SDS011;7854;52.184;5.942;2023-04-25T01:56:18;8;;;5;;
15504;SDS011;7854;52.184;5.942;2023-04-25T01:58:31;8;;;5;;
15504;SDS011;7854;52.184;5.942;2023-04-25T02:00:45;36;;;6;;
15504;SDS011;7854;52.184;5.942;2023-04-25T02:02:59;10;;;6;;
15504;SDS011;7854;52.184;5.942;2023-04-25T02:05:14;30;;;7;;
15504;SDS011;7854;52.184;5.942;2023-04-25T02:07:28;17;;;6;;
15504;SDS011;7854;52.184;5.942;2023-04-25T02:09:43;14;;;5;;
15504;SDS011;7854;52.184;5.942;2023-04-25T02:11:57;8;;;4;;
15504;SDS011;7854;52.184;5.942;2023-04-25T02:14:12;14;;;6;;
15504;SDS011;7854;52.184;5.942;2023-04-25T02:16:26;12;;;5;;
15504;SDS011;7854;52.184;5.942;2023-04-25T02:18:41;16;;;5;;
15504;SDS011;7854;52.184;5.942;2023-04-25T02:20:55;19;;;6;;
15504;SDS011;7854;52.184;5.942;2023-04-25T02:23:10;8;;;5;;
15504;SDS011;7854;52.184;5.942;2023-04-25T02:25:24;6;;;5;;
15504;SDS011;7854;52.184;5.942;2023-04-25T02:27:39;13;;;5;;
15504;SDS011;7854;52.184;5.942;2023-04-25T02:29:53;7;;;5;;
15504;SDS011;7854;52.184;5.942;2023-04-25T02:32:07;6;;;5;;
15504;SDS011;7854;52.184;5.942;2023-04-25T02:34:22;9;;;6;;
15504;SDS011;7854;52.184;5.942;2023-04-25T02:36:36;20;;;6;;
15504;SDS011;7854;52.184;5.942;2023-04-25T02:38:51;17;;;5;;
15504;SDS011;7854;52.184;5.942;2023-04-25T02:41:05;10;;;5;;
15504;SDS011;7854;52.184;5.942;2023-04-25T02:43:19;14;;;6;;
15504;SDS011;7854;52.184;5.942;2023-04-25T02:45:33;7;;;4;;
15504;SDS011;7854;52.184;5.942;2023-04-25T02:47:48;16;;;5;;
15504;SDS011;7854;52.184;5.942;2023-04-25T02:50:02;22;;;5;;
15504;SDS011;7854;52.184;5.942;2023-04-25T02:52:17;14;;;4;;
15504;SDS011;7854;52.184;5.942;2023-04-25T02:54:30;26;;;6;;
15504;SDS011;7854;52.184;5.942;2023-04-25T02:56:44;10;;;5;;
15504;SDS011;7854;52.184;5.942;2023-04-25T02:58:59;9;;;5;;
15504;SDS011;7854;52.184;5.942;2023-04-25T03:01:13;12;;;5;;
15504;SDS011;7854;52.184;5.942;2023-04-25T03:03:28;16;;;5;;
15504;SDS011;7854;52.184;5.942;2023-04-25T03:05:42;11;;;4;;
15504;SDS011;7854;52.184;5.942;2023-04-25T03:07:57;16;;;6;;
15504;SDS011;7854;52.184;5.942;2023-04-25T03:10:11;10;;;5;;
15504;SDS011;7854;52.184;5.942;2023-04-25T03:12:26;10;;;5;;
15504;SDS011;7854;52.184;5.942;2023-04-25T03:14:40;8;;;5;;
15504;SDS011;7854;52.184;5.942;2023-04-25T03:16:54;8;;;5;;
15504;SDS011;7854;52.184;5.942;2023-04-25T03:19:09;15;;;5;;
15504;SDS011;7854;52.184;5.942;2023-04-25T03:21:23;9;;;5;;
15504;SDS011;7854;52.184;5.942;2023-04-25T03:23:38;22;;;6;;
15504;SDS011;7854;52.184;5.942;2023-04-25T03:25:52;9;;;5;;
15504;SDS011;7854;52.184;5.942;2023-04-25T03:28:06;12;;;5;;
15504;SDS011;7854;52.184;5.942;2023-04-25T03:30:21;28;;;7;;
15504;SDS011;7854;52.184;5.942;2023-04-25T03:32:36;5;;;4;;
15504;SDS011;7854;52.184;5.942;2023-04-25T03:34:50;20;;;6;;
15504;SDS011;7854;52.184;5.942;2023-04-25T03:37:04;10;;;5;;
15504;SDS011;7854;52.184;5.942;2023-04-25T03:39:19;17;;;6;;
15504;SDS011;7854;52.184;5.942;2023-04-25T03:41:32;14;;;6;;
15504;SDS011;7854;52.184;5.942;2023-04-25T03:43:47;17;;;5;;
15504;SDS011;7854;52.184;5.942;2023-04-25T03:46:00;23;;;9;;
15504;SDS011;7854;52.184;5.942;2023-04-25T03:48:14;15;;;6;;
15504;SDS011;7854;52.184;5.942;2023-04-25T03:50:29;11;;;7;;
15504;SDS011;7854;52.184;5.942;2023-04-25T03:52:44;27;;;6;;
15504;SDS011;7854;52.184;5.942;2023-04-25T03:54:58;7;;;6;;
15504;SDS011;7854;52.184;5.942;2023-04-25T03:57:13;16;;;8;;
15504;SDS011;7854;52.184;5.942;2023-04-25T03:59:27;16;;;7;;
15504;SDS011;7854;52.184;5.942;2023-04-25T04:01:42;9;;;5;;
15504;SDS011;7854;52.184;5.942;2023-04-25T04:03:56;11;;;6;;
15504;SDS011;7854;52.184;5.942;2023-04-25T04:06:10;15;;;7;;
15504;SDS011;7854;52.184;5.942;2023-04-25T04:08:24;20;;;7;;
15504;SDS011;7854;52.184;5.942;2023-04-25T04:10:39;13;;;6;;
15504;SDS011;7854;52.184;5.942;2023-04-25T04:12:54;33;;;5;;
15504;SDS011;7854;52.184;5.942;2023-04-25T04:15:08;10;;;5;;
15504;SDS011;7854;52.184;5.942;2023-04-25T04:17:22;9;;;5;;
15504;SDS011;7854;52.184;5.942;2023-04-25T04:19:37;5;;;5;;
15504;SDS011;7854;52.184;5.942;2023-04-25T04:21:51;12;;;4;;
15504;SDS011;7854;52.184;5.942;2023-04-25T04:24:06;7;;;4;;
15504;SDS011;7854;52.184;5.942;2023-04-25T04:26:20;14;;;6;;
15504;SDS011;7854;52.184;5.942;2023-04-25T04:28:35;5;;;4;;
15504;SDS011;7854;52.184;5.942;2023-04-25T04:30:49;6;;;4;;
15504;SDS011;7854;52.184;5.942;2023-04-25T04:33:02;8;;;4;;
15504;SDS011;7854;52.184;5.942;2023-04-25T04:35:17;11;;;4;;
15504;SDS011;7854;52.184;5.942;2023-04-25T04:37:32;7;;;4;;
15504;SDS011;7854;52.184;5.942;2023-04-25T04:39:45;18;;;4;;
15504;SDS011;7854;52.184;5.942;2023-04-25T04:42:00;15;;;4;;
15504;SDS011;7854;52.184;5.942;2023-04-25T04:44:14;9;;;5;;
15504;SDS011;7854;52.184;5.942;2023-04-25T04:46:28;11;;;3;;
15504;SDS011;7854;52.184;5.942;2023-04-25T04:48:42;6;;;3;;
15504;SDS011;7854;52.184;5.942;2023-04-25T04:50:57;6;;;4;;
15504;SDS011;7854;52.184;5.942;2023-04-25T04:53:12;15;;;6;;
15504;SDS011;7854;52.184;5.942;2023-04-25T04:55:26;6;;;4;;
15504;SDS011;7854;52.184;5.942;2023-04-25T04:57:41;4;;;3;;
15504;SDS011;7854;52.184;5.942;2023-04-25T04:59:55;12;;;3;;
15504;SDS011;7854;52.184;5.942;2023-04-25T05:02:09;14;;;5;;
15504;SDS011;7854;52.184;5.942;2023-04-25T05:04:24;7;;;3;;
15504;SDS011;7854;52.184;5.942;2023-04-25T05:06:38;14;;;5;;
15504;SDS011;7854;52.184;5.942;2023-04-25T05:08:53;14;;;5;;
15504;SDS011;7854;52.184;5.942;2023-04-25T05:11:07;9;;;4;;
15504;SDS011;7854;52.184;5.942;2023-04-25T05:13:22;17;;;4;;
15504;SDS011;7854;52.184;5.942;2023-04-25T05:15:36;5;;;2;;
15504;SDS011;7854;52.184;5.942;2023-04-25T05:20:05;6;;;2;;
15504;SDS011;7854;52.184;5.942;2023-04-25T05:22:19;3;;;1;;
15504;SDS011;7854;52.184;5.942;2023-04-25T05:24:34;9;;;2;;
15504;SDS011;7854;52.184;5.942;2023-04-25T05:26:48;7;;;2;;
15504;SDS011;7854;52.184;5.942;2023-04-25T05:29:03;3;;;2;;
15504;SDS011;7854;52.184;5.942;2023-04-25T05:31:17;7;;;2;;
15504;SDS011;7854;52.184;5.942;2023-04-25T05:33:32;9;;;2;;
15504;SDS011;7854;52.184;5.942;2023-04-25T05:35:46;2;;;2;;
15504;SDS011;7854;52.184;5.942;2023-04-25T05:38:01;2;;;2;;
15504;SDS011;7854;52.184;5.942;2023-04-25T05:40:15;3;;;2;;
15504;SDS011;7854;52.184;5.942;2023-04-25T05:42:29;3;;;2;;
15504;SDS011;7854;52.184;5.942;2023-04-25T05:44:44;3;;;2;;
15504;SDS011;7854;52.184;5.942;2023-04-25T05:46:58;5;;;2;;
15504;SDS011;7854;52.184;5.942;2023-04-25T05:49:13;3;;;2;;
15504;SDS011;7854;52.184;5.942;2023-04-25T05:51:27;2;;;1;;
15504;SDS011;7854;52.184;5.942;2023-04-25T05:53:42;4;;;2;;
15504;SDS011;7854;52.184;5.942;2023-04-25T05:55:56;2;;;2;;
15504;SDS011;7854;52.184;5.942;2023-04-25T05:58:11;5;;;2;;
15504;SDS011;7854;52.184;5.942;2023-04-25T06:00:25;3;;;2;;
15504;SDS011;7854;52.184;5.942;2023-04-25T06:02:40;12;;;3;;
15504;SDS011;7854;52.184;5.942;2023-04-25T06:04:54;11;;;2;;
15504;SDS011;7854;52.184;5.942;2023-04-25T06:07:09;6;;;2;;
15504;SDS011;7854;52.184;5.942;2023-04-25T06:09:23;5;;;3;;
15504;SDS011;7854;52.184;5.942;2023-04-25T06:11:37;8;;;3;;
15504;SDS011;7854;52.184;5.942;2023-04-25T06:13:52;8;;;3;;
15504;SDS011;7854;52.184;5.942;2023-04-25T06:16:06;6;;;2;;
15504;SDS011;7854;52.184;5.942;2023-04-25T06:18:20;4;;;2;;
15504;SDS011;7854;52.184;5.942;2023-04-25T06:20:35;2;;;2;;
15504;SDS011;7854;52.184;5.942;2023-04-25T06:22:49;2;;;1;;
15504;SDS011;7854;52.184;5.942;2023-04-25T06:25:04;7;;;1;;
15504;SDS011;7854;52.184;5.942;2023-04-25T06:27:18;4;;;1;;
15504;SDS011;7854;52.184;5.942;2023-04-25T06:29:33;7;;;2;;
15504;SDS011;7854;52.184;5.942;2023-04-25T06:31:47;8;;;1;;
15504;SDS011;7854;52.184;5.942;2023-04-25T06:34:02;8;;;2;;
15504;SDS011;7854;52.184;5.942;2023-04-25T06:36:16;2;;;1;;
15504;SDS011;7854;52.184;5.942;2023-04-25T06:38:31;4;;;1;;
15504;SDS011;7854;52.184;5.942;2023-04-25T06:40:45;2;;;1;;
15504;SDS011;7854;52.184;5.942;2023-04-25T06:42:59;10;;;2;;
15504;SDS011;7854;52.184;5.942;2023-04-25T06:45:14;2;;;1;;
15504;SDS011;7854;52.184;5.942;2023-04-25T06:47:28;7;;;1;;
15504;SDS011;7854;52.184;5.942;2023-04-25T06:49:42;4;;;1;;
15504;SDS011;7854;52.184;5.942;2023-04-25T06:51:57;2;;;1;;
15504;SDS011;7854;52.184;5.942;2023-04-25T06:54:10;8;;;2;;
15504;SDS011;7854;52.184;5.942;2023-04-25T06:56:25;5;;;2;;
15504;SDS011;7854;52.184;5.942;2023-04-25T06:58:38;5;;;2;;
15504;SDS011;7854;52.184;5.942;2023-04-25T07:00:53;11;;;1;;
15504;SDS011;7854;52.184;5.942;2023-04-25T07:03:07;3;;;2;;
15504;SDS011;7854;52.184;5.942;2023-04-25T07:05:22;4;;;1;;
15504;SDS011;7854;52.184;5.942;2023-04-25T07:07:36;11;;;1;;
15504;SDS011;7854;52.184;5.942;2023-04-25T07:09:51;6;;;1;;
15504;SDS011;7854;52.184;5.942;2023-04-25T07:12:05;6;;;1;;
15504;SDS011;7854;52.184;5.942;2023-04-25T07:14:20;1;;;0;;
15504;SDS011;7854;52.184;5.942;2023-04-25T07:16:34;1;;;1;;
15504;SDS011;7854;52.184;5.942;2023-04-25T07:18:49;2;;;1;;
15504;SDS011;7854;52.184;5.942;2023-04-25T07:21:03;2;;;1;;
15504;SDS011;7854;52.184;5.942;2023-04-25T07:23:18;1;;;1;;
15504;SDS011;7854;52.184;5.942;2023-04-25T07:25:31;2;;;1;;
15504;SDS011;7854;52.184;5.942;2023-04-25T07:27:46;3;;;1;;
15504;SDS011;7854;52.184;5.942;2023-04-25T07:30:00;8;;;2;;
15504;SDS011;7854;52.184;5.942;2023-04-25T07:32:14;5;;;1;;
15504;SDS011;7854;52.184;5.942;2023-04-25T07:34:29;10;;;1;;
15504;SDS011;7854;52.184;5.942;2023-04-25T07:36:44;6;;;1;;
15504;SDS011;7854;52.184;5.942;2023-04-25T07:38:58;2;;;1;;
15504;SDS011;7854;52.184;5.942;2023-04-25T07:41:12;1;;;0;;
15504;SDS011;7854;52.184;5.942;2023-04-25T07:43:26;6;;;1;;
15504;SDS011;7854;52.184;5.942;2023-04-25T07:45:40;5;;;3;;
15504;SDS011;7854;52.184;5.942;2023-04-25T07:47:55;8;;;1;;
15504;SDS011;7854;52.184;5.942;2023-04-25T07:50:09;5;;;1;;
15504;SDS011;7854;52.184;5.942;2023-04-25T07:52:23;4;;;1;;
15504;SDS011;7854;52.184;5.942;2023-04-25T07:54:37;12;;;1;;
15504;SDS011;7854;52.184;5.942;2023-04-25T07:56:51;6;;;1;;
15504;SDS011;7854;52.184;5.942;2023-04-25T07:59:06;1;;;0;;
15504;SDS011;7854;52.184;5.942;2023-04-25T08:01:20;1;;;0;;
15504;SDS011;7854;52.184;5.942;2023-04-25T08:03:34;0;;;0;;
15504;SDS011;7854;52.184;5.942;2023-04-25T08:05:49;0;;;0;;
15504;SDS011;7854;52.184;5.942;2023-04-25T08:08:03;0;;;0;;
15504;SDS011;7854;52.184;5.942;2023-04-25T08:10:18;0;;;0;;
15504;SDS011;7854;52.184;5.942;2023-04-25T08:12:33;0;;;0;;
15504;SDS011;7854;52.184;5.942;2023-04-25T08:14:47;2;;;0;;
15504;SDS011;7854;52.184;5.942;2023-04-25T08:17:01;0;;;0;;
15504;SDS011;7854;52.184;5.942;2023-04-25T08:19:16;1;;;0;;
15504;SDS011;7854;52.184;5.942;2023-04-25T08:21:30;0;;;0;;
15504;SDS011;7854;52.184;5.942;2023-04-25T08:23:45;3;;;1;;
15504;SDS011;7854;52.184;5.942;2023-04-25T08:25:59;7;;;0;;
15504;SDS011;7854;52.184;5.942;2023-04-25T08:28:14;1;;;0;;
15504;SDS011;7854;52.184;5.942;2023-04-25T08:30:28;1;;;0;;
15504;SDS011;7854;52.184;5.942;2023-04-25T08:32:42;2;;;0;;
15504;SDS011;7854;52.184;5.942;2023-04-25T08:34:57;1;;;0;;
15504;SDS011;7854;52.184;5.942;2023-04-25T08:37:11;1;;;0;;
15504;SDS011;7854;52.184;5.942;2023-04-25T08:39:25;1;;;0;;
15504;SDS011;7854;52.184;5.942;2023-04-25T08:41:38;4;;;0;;
15504;SDS011;7854;52.184;5.942;2023-04-25T08:43:53;4;;;0;;
15504;SDS011;7854;52.184;5.942;2023-04-25T08:46:07;3;;;1;;
15504;SDS011;7854;52.184;5.942;2023-04-25T08:48:22;5;;;0;;
15504;SDS011;7854;52.184;5.942;2023-04-25T08:50:36;7;;;1;;
15504;SDS011;7854;52.184;5.942;2023-04-25T08:52:50;1;;;0;;
15504;SDS011;7854;52.184;5.942;2023-04-25T08:55:05;4;;;1;;
15504;SDS011;7854;52.184;5.942;2023-04-25T08:57:19;7;;;1;;
15504;SDS011;7854;52.184;5.942;2023-04-25T08:59:34;2;;;0;;
15504;SDS011;7854;52.184;5.942;2023-04-25T09:01:48;2;;;0;;
15504;SDS011;7854;52.184;5.942;2023-04-25T09:04:03;1;;;0;;
15504;SDS011;7854;52.184;5.942;2023-04-25T09:06:17;0;;;0;;
15504;SDS011;7854;52.184;5.942;2023-04-25T09:08:32;4;;;1;;
15504;SDS011;7854;52.184;5.942;2023-04-25T09:10:46;3;;;0;;
15504;SDS011;7854;52.184;5.942;2023-04-25T09:13:02;1;;;0;;
15504;SDS011;7854;52.184;5.942;2023-04-25T09:15:16;2;;;0;;
15504;SDS011;7854;52.184;5.942;2023-04-25T09:17:29;11;;;1;;
15504;SDS011;7854;52.184;5.942;2023-04-25T09:19:44;2;;;0;;
15504;SDS011;7854;52.184;5.942;2023-04-25T09:21:59;3;;;1;;
15504;SDS011;7854;52.184;5.942;2023-04-25T09:24:13;1;;;0;;
15504;SDS011;7854;52.184;5.942;2023-04-25T09:26:27;6;;;0;;
15504;SDS011;7854;52.184;5.942;2023-04-25T09:28:40;3;;;0;;
15504;SDS011;7854;52.184;5.942;2023-04-25T09:30:55;1;;;0;;
15504;SDS011;7854;52.184;5.942;2023-04-25T09:33:10;1;;;0;;
15504;SDS011;7854;52.184;5.942;2023-04-25T09:35:24;1;;;0;;
15504;SDS011;7854;52.184;5.942;2023-04-25T09:37:38;5;;;1;;
15504;SDS011;7854;52.184;5.942;2023-04-25T09:39:53;4;;;1;;
15504;SDS011;7854;52.184;5.942;2023-04-25T09:42:07;1;;;0;;
15504;SDS011;7854;52.184;5.942;2023-04-25T09:44:22;0;;;0;;
15504;SDS011;7854;52.184;5.942;2023-04-25T09:46:35;3;;;0;;
15504;SDS011;7854;52.184;5.942;2023-04-25T09:48:50;13;;;1;;
15504;SDS011;7854;52.184;5.942;2023-04-25T09:51:05;15;;;1;;
15504;SDS011;7854;52.184;5.942;2023-04-25T09:53:19;10;;;0;;
15504;SDS011;7854;52.184;5.942;2023-04-25T09:55:33;4;;;0;;
15504;SDS011;7854;52.184;5.942;2023-04-25T09:57:48;2;;;0;;
15504;SDS011;7854;52.184;5.942;2023-04-25T10:00:05;1;;;1;;
15504;SDS011;7854;52.184;5.942;2023-04-25T10:02:17;1;;;0;;
15504;SDS011;7854;52.184;5.942;2023-04-25T10:04:31;3;;;0;;
15504;SDS011;7854;52.184;5.942;2023-04-25T10:06:45;1;;;0;;
15504;SDS011;7854;52.184;5.942;2023-04-25T10:11:14;2;;;0;;
15504;SDS011;7854;52.184;5.942;2023-04-25T10:13:28;2;;;0;;
15504;SDS011;7854;52.184;5.942;2023-04-25T10:15:43;4;;;0;;
15504;SDS011;7854;52.184;5.942;2023-04-25T10:17:58;5;;;0;;
15504;SDS011;7854;52.184;5.942;2023-04-25T10:20:12;1;;;0;;
15504;SDS011;7854;52.184;5.942;2023-04-25T10:22:29;2;;;0;;
15504;SDS011;7854;52.184;5.942;2023-04-25T10:24:40;2;;;0;;
15504;SDS011;7854;52.184;5.942;2023-04-25T10:26:55;1;;;0;;
15504;SDS011;7854;52.184;5.942;2023-04-25T10:29:09;2;;;0;;
15504;SDS011;7854;52.184;5.942;2023-04-25T10:31:23;1;;;0;;
15504;SDS011;7854;52.184;5.942;2023-04-25T10:33:37;1;;;0;;
15504;SDS011;7854;52.184;5.942;2023-04-25T10:35:51;3;;;0;;
15504;SDS011;7854;52.184;5.942;2023-04-25T10:38:08;2;;;0;;
15504;SDS011;7854;52.184;5.942;2023-04-25T10:40:21;0;;;0;;
15504;SDS011;7854;52.184;5.942;2023-04-25T10:42:35;1;;;0;;
15504;SDS011;7854;52.184;5.942;2023-04-25T10:45:00;4;;;0;;
15504;SDS011;7854;52.184;5.942;2023-04-25T10:47:05;10;;;0;;
15504;SDS011;7854;52.184;5.942;2023-04-25T10:49:34;1;;;0;;
15504;SDS011;7854;52.184;5.942;2023-04-25T10:53:13;1;;;0;;
15504;SDS011;7854;52.184;5.942;2023-04-25T10:53:48;3;;;0;;
15504;SDS011;7854;52.184;5.942;2023-04-25T10:56:08;1;;;0;;
15504;SDS011;7854;52.184;5.942;2023-04-25T10:58:18;2;;;0;;
15504;SDS011;7854;52.184;5.942;2023-04-25T11:00:30;2;;;0;;
15504;SDS011;7854;52.184;5.942;2023-04-25T11:02:45;2;;;0;;
15504;SDS011;7854;52.184;5.942;2023-04-25T11:04:59;1;;;1;;
15504;SDS011;7854;52.184;5.942;2023-04-25T11:07:16;3;;;0;;
15504;SDS011;7854;52.184;5.942;2023-04-25T11:09:28;3;;;1;;
15504;SDS011;7854;52.184;5.942;2023-04-25T11:11:42;1;;;0;;
15504;SDS011;7854;52.184;5.942;2023-04-25T11:13:56;3;;;1;;
15504;SDS011;7854;52.184;5.942;2023-04-25T11:16:11;2;;;0;;
15504;SDS011;7854;52.184;5.942;2023-04-25T11:18:25;3;;;0;;
15504;SDS011;7854;52.184;5.942;2023-04-25T11:20:39;1;;;0;;
15504;SDS011;7854;52.184;5.942;2023-04-25T11:22:53;4;;;0;;
15504;SDS011;7854;52.184;5.942;2023-04-25T11:25:08;1;;;0;;
15504;SDS011;7854;52.184;5.942;2023-04-25T11:27:22;1;;;1;;
15504;SDS011;7854;52.184;5.942;2023-04-25T11:29:37;6;;;0;;
15504;SDS011;7854;52.184;5.942;2023-04-25T11:31:51;2;;;0;;
15504;SDS011;7854;52.184;5.942;2023-04-25T11:34:06;1;;;0;;
15504;SDS011;7854;52.184;5.942;2023-04-25T11:36:19;0;;;0;;
15504;SDS011;7854;52.184;5.942;2023-04-25T11:38:34;1;;;0;;
15504;SDS011;7854;52.184;5.942;2023-04-25T11:40:50;4;;;1;;
15504;SDS011;7854;52.184;5.942;2023-04-25T11:43:03;2;;;0;;
15504;SDS011;7854;52.184;5.942;2023-04-25T11:45:17;2;;;0;;
15504;SDS011;7854;52.184;5.942;2023-04-25T11:47:32;3;;;1;;
15504;SDS011;7854;52.184;5.942;2023-04-25T11:49:46;5;;;0;;
15504;SDS011;7854;52.184;5.942;2023-04-25T11:52:00;9;;;1;;
15504;SDS011;7854;52.184;5.942;2023-04-25T11:54:15;1;;;1;;
15504;SDS011;7854;52.184;5.942;2023-04-25T11:56:29;2;;;0;;
15504;SDS011;7854;52.184;5.942;2023-04-25T11:59:00;5;;;1;;
15504;SDS011;7854;52.184;5.942;2023-04-25T12:00:58;1;;;0;;
15504;SDS011;7854;52.184;5.942;2023-04-25T12:03:13;6;;;0;;
15504;SDS011;7854;52.184;5.942;2023-04-25T12:05:28;3;;;0;;
15504;SDS011;7854;52.184;5.942;2023-04-25T12:07:42;3;;;0;;
15504;SDS011;7854;52.184;5.942;2023-04-25T12:09:56;1;;;0;;
15504;SDS011;7854;52.184;5.942;2023-04-25T12:12:10;3;;;1;;
15504;SDS011;7854;52.184;5.942;2023-04-25T12:14:25;3;;;0;;
15504;SDS011;7854;52.184;5.942;2023-04-25T12:16:39;8;;;1;;
15504;SDS011;7854;52.184;5.942;2023-04-25T12:18:55;1;;;0;;
15504;SDS011;7854;52.184;5.942;2023-04-25T12:21:09;1;;;0;;
15504;SDS011;7854;52.184;5.942;2023-04-25T12:23:25;2;;;0;;
15504;SDS011;7854;52.184;5.942;2023-04-25T12:25:37;0;;;0;;
15504;SDS011;7854;52.184;5.942;2023-04-25T12:27:50;1;;;0;;
15504;SDS011;7854;52.184;5.942;2023-04-25T12:30:06;1;;;0;;
15504;SDS011;7854;52.184;5.942;2023-04-25T12:32:20;1;;;0;;
15504;SDS011;7854;52.184;5.942;2023-04-25T12:34:34;1;;;0;;
15504;SDS011;7854;52.184;5.942;2023-04-25T12:36:48;10;;;0;;
15504;SDS011;7854;52.184;5.942;2023-04-25T12:39:03;1;;;0;;
15504;SDS011;7854;52.184;5.942;2023-04-25T12:41:16;0;;;0;;
15504;SDS011;7854;52.184;5.942;2023-04-25T12:43:30;15;;;0;;
15504;SDS011;7854;52.184;5.942;2023-04-25T12:45:47;1;;;0;;
15504;SDS011;7854;52.184;5.942;2023-04-25T12:47:59;2;;;1;;
15504;SDS011;7854;52.184;5.942;2023-04-25T12:50:14;2;;;0;;
15504;SDS011;7854;52.184;5.942;2023-04-25T12:52:29;3;;;0;;
15504;SDS011;7854;52.184;5.942;2023-04-25T12:54:43;15;;;0;;
15504;SDS011;7854;52.184;5.942;2023-04-25T12:56:57;2;;;0;;
15504;SDS011;7854;52.184;5.942;2023-04-25T12:59:12;3;;;1;;
15504;SDS011;7854;52.184;5.942;2023-04-25T13:01:26;1;;;0;;
15504;SDS011;7854;52.184;5.942;2023-04-25T13:03:40;2;;;0;;
15504;SDS011;7854;52.184;5.942;2023-04-25T13:05:55;2;;;0;;
15504;SDS011;7854;52.184;5.942;2023-04-25T13:08:10;1;;;0;;
15504;SDS011;7854;52.184;5.942;2023-04-25T13:10:24;1;;;0;;
15504;SDS011;7854;52.184;5.942;2023-04-25T13:12:39;1;;;0;;
15504;SDS011;7854;52.184;5.942;2023-04-25T13:14:53;0;;;0;;
15504;SDS011;7854;52.184;5.942;2023-04-25T13:17:07;8;;;0;;
15504;SDS011;7854;52.184;5.942;2023-04-25T13:19:22;1;;;0;;
15504;SDS011;7854;52.184;5.942;2023-04-25T13:21:36;1;;;0;;
15504;SDS011;7854;52.184;5.942;2023-04-25T13:23:51;1;;;0;;
15504;SDS011;7854;52.184;5.942;2023-04-25T13:26:05;0;;;0;;
15504;SDS011;7854;52.184;5.942;2023-04-25T13:28:19;1;;;0;;
15504;SDS011;7854;52.184;5.942;2023-04-25T13:30:33;1;;;0;;
15504;SDS011;7854;52.184;5.942;2023-04-25T13:32:48;3;;;1;;
15504;SDS011;7854;52.184;5.942;2023-04-25T13:35:03;0;;;0;;
15504;SDS011;7854;52.184;5.942;2023-04-25T13:37:16;1;;;0;;
15504;SDS011;7854;52.184;5.942;2023-04-25T13:39:30;1;;;0;;
15504;SDS011;7854;52.184;5.942;2023-04-25T13:41:44;1;;;0;;
15504;SDS011;7854;52.184;5.942;2023-04-25T13:43:59;1;;;0;;
15504;SDS011;7854;52.184;5.942;2023-04-25T13:46:13;1;;;0;;
15504;SDS011;7854;52.184;5.942;2023-04-25T13:48:28;3;;;0;;
15504;SDS011;7854;52.184;5.942;2023-04-25T13:50:42;0;;;0;;
15504;SDS011;7854;52.184;5.942;2023-04-25T13:52:57;1;;;0;;
15504;SDS011;7854;52.184;5.942;2023-04-25T13:55:11;1;;;0;;
15504;SDS011;7854;52.184;5.942;2023-04-25T13:57:25;1;;;0;;
15504;SDS011;7854;52.184;5.942;2023-04-25T13:59:40;0;;;0;;
15504;SDS011;7854;52.184;5.942;2023-04-25T14:01:54;2;;;0;;
15504;SDS011;7854;52.184;5.942;2023-04-25T14:04:09;3;;;0;;
15504;SDS011;7854;52.184;5.942;2023-04-25T14:06:23;1;;;0;;
15504;SDS011;7854;52.184;5.942;2023-04-25T14:08:38;1;;;0;;
15504;SDS011;7854;52.184;5.942;2023-04-25T14:10:52;3;;;0;;
15504;SDS011;7854;52.184;5.942;2023-04-25T14:13:06;1;;;0;;
15504;SDS011;7854;52.184;5.942;2023-04-25T14:15:21;1;;;0;;
15504;SDS011;7854;52.184;5.942;2023-04-25T14:17:36;2;;;0;;
15504;SDS011;7854;52.184;5.942;2023-04-25T14:19:50;3;;;0;;
15504;SDS011;7854;52.184;5.942;2023-04-25T14:22:04;11;;;1;;
15504;SDS011;7854;52.184;5.942;2023-04-25T14:24:19;1;;;0;;
15504;SDS011;7854;52.184;5.942;2023-04-25T14:26:33;0;;;0;;
15504;SDS011;7854;52.184;5.942;2023-04-25T14:28:47;1;;;0;;
15504;SDS011;7854;52.184;5.942;2023-04-25T14:31:01;1;;;0;;
15504;SDS011;7854;52.184;5.942;2023-04-25T14:33:16;2;;;0;;
15504;SDS011;7854;52.184;5.942;2023-04-25T14:35:30;1;;;0;;
15504;SDS011;7854;52.184;5.942;2023-04-25T14:37:44;1;;;0;;
15504;SDS011;7854;52.184;5.942;2023-04-25T14:39:58;7;;;0;;
15504;SDS011;7854;52.184;5.942;2023-04-25T14:42:13;0;;;0;;
15504;SDS011;7854;52.184;5.942;2023-04-25T14:44:27;1;;;0;;
15504;SDS011;7854;52.184;5.942;2023-04-25T14:46:41;2;;;0;;
15504;SDS011;7854;52.184;5.942;2023-04-25T14:48:55;2;;;0;;
15504;SDS011;7854;52.184;5.942;2023-04-25T14:51:10;2;;;1;;
15504;SDS011;7854;52.184;5.942;2023-04-25T14:55:39;2;;;0;;
15504;SDS011;7854;52.184;5.942;2023-04-25T14:57:53;5;;;1;;
15504;SDS011;7854;52.184;5.942;2023-04-25T15:00:08;1;;;0;;
15504;SDS011;7854;52.184;5.942;2023-04-25T15:02:22;4;;;0;;
15504;SDS011;7854;52.184;5.942;2023-04-25T15:04:36;9;;;0;;
15504;SDS011;7854;52.184;5.942;2023-04-25T15:06:50;8;;;0;;
15504;SDS011;7854;52.184;5.942;2023-04-25T15:09:05;3;;;0;;